Terminal Aerodrome Forecast
Issued by NWS Newport/Morehead City, NC

Home | Current Version | Previous Version | Graphics & Text | Print | Product List | Glossary On
Versions: 1 2 3 4 5 6 7 8 9 10 11 12 13 14 15
000
FTUS42 KMHX 300500 RRA
TAFEWN
TAF
KEWN 300541Z 3006/3106 05002KT P6SM SKC
     FM300800 00000KT 4SM BR BKN005
     FM301230 15007KT P6SM SCT040
     FM310100 16004KT P6SM SKC=

USA.gov is the U.S. government's official web portal to all federal, state and local government web resources and services.